Vila Real, Portugal

1:02 AM WET on February 28, 2015 (GMT +0000)
Moimenta Da Beira | Change Station
CLOSE
Current Station
Personal Weather Station
Location: Moimenta Da Beira, PT
Elevation: 2116 ft
Nearby Weather Stations

Elev 2116 ft 40.98 °N, 7.61 °W | Updated 2 minutes ago

Mostly Cloudy
Mostly Cloudy
44.7 °F
Feels Like 42 °F
N
4.5
Wind Variable Wind from NW
Gusts 11.4 mph

Today
High -- | Low -- °F
--% Chance of Precip.
Yesterday
High -- | Low -- °F
Precip. -- in
7:07 AM 6:20 PM
Waxing Gibbous, 73% visible
Pressure 30.39 in
Visibility 6.2 miles
Clouds Scattered Clouds 1500 ft
Mostly Cloudy 2000 ft
Windchill 42 °F
Dew Point 38 °F
Humidity 77%
Rainfall 0.00 in
Snow Depth Not available.
UV 0 out of 12
Pollen Not available.
Air Quality Not available.
Flu Activity Not available.
METAR LPPR 280030Z 00000KT 9999 SCT015 BKN020 10/07 Q1029

More Conditions Fewer Conditions

Pressure 30.39 in
Visibility 6.2 miles
Clouds Scattered Clouds 1500 ft
Mostly Cloudy 2000 ft
Windchill 42 °F
Dew Point 38 °F
Humidity 77%
Rainfall 0.00 in
Snow Depth Not available.
UV 0 out of 12
Pollen Not available.
Air Quality Not available.
Flu Activity Not available.
METAR LPPR 280030Z 00000KT 9999 SCT015 BKN020 10/07 Q1029

More Conditions Fewer Conditions

10-Day Weather Forecast

Almanac

Astronomy

Feb. 28, 2015 Rise Set
Actual Time
Civil Twilight
Nautical Twilight
Astronomical Twilight
Moon
Length of Visible Light
Length of Day
Tomorrow will be .
, % of the Moon is Illuminated

Today's Extremes

Country Highs Country Lows

Community

WunderPhotos

Upload Photos

1,800,911 photos uploaded!

WunderBlogs® & News

Nearby

Air Quality

  Air Quality AQ Index Pollutant
Not available.

Snow Depth

Station Depth Elevation

Earthquake Activity

City Distance Mag. Time & Date
Minimum magnitude displayed is 2.5.

Coastal Water Temperatures

Place Temperature

Nearby Weather Stations